createdAt,value
2022-07-27T00:02:52.701Z,17.84
2022-07-27T00:05:58.362Z,17.94
2022-07-27T00:09:03.550Z,17.99
2022-07-27T00:12:10.614Z,17.90
2022-07-27T00:15:17.900Z,17.98
2022-07-27T00:18:23.368Z,17.90
2022-07-27T00:21:28.910Z,17.78
2022-07-27T00:24:34.333Z,17.88
2022-07-27T00:27:39.741Z,17.89
2022-07-27T00:30:46.254Z,17.89
2022-07-27T00:33:51.375Z,17.97
2022-07-27T00:36:56.669Z,17.93
2022-07-27T00:40:02.457Z,17.70
2022-07-27T00:43:07.816Z,17.79
2022-07-27T00:46:14.312Z,17.84
2022-07-27T00:49:20.161Z,17.83
2022-07-27T00:52:26.427Z,17.71
2022-07-27T00:55:32.038Z,17.70
2022-07-27T00:58:37.758Z,17.67
2022-07-27T01:01:44.478Z,17.71
2022-07-27T01:04:49.870Z,17.42
2022-07-27T01:07:59.713Z,17.64
2022-07-27T01:11:05.525Z,17.56
2022-07-27T01:14:14.746Z,17.59
2022-07-27T01:17:21.245Z,17.68
2022-07-27T01:20:26.776Z,17.70
2022-07-27T01:23:33.680Z,17.38
2022-07-27T01:26:40.472Z,17.45
2022-07-27T01:29:45.644Z,17.42
2022-07-27T01:32:50.965Z,17.47
2022-07-27T01:35:57.915Z,17.49
2022-07-27T01:39:05.021Z,17.32
2022-07-27T01:42:12.796Z,17.38
2022-07-27T01:45:18.224Z,17.50
2022-07-27T01:48:23.557Z,17.44
2022-07-27T01:51:28.953Z,17.19
2022-07-27T01:54:35.375Z,17.30
2022-07-27T01:57:41.250Z,17.35
2022-07-27T02:00:47.031Z,17.36
2022-07-27T02:03:52.369Z,17.30
2022-07-27T02:06:57.913Z,17.33
2022-07-27T02:10:05.458Z,17.29
2022-07-27T02:13:22.314Z,17.27
2022-07-27T02:16:28.281Z,17.26
2022-07-27T02:19:33.651Z,17.26
2022-07-27T02:22:39.035Z,17.28
2022-07-27T02:25:46.010Z,17.10
2022-07-27T02:28:51.973Z,17.20
2022-07-27T02:31:57.161Z,17.25
2022-07-27T02:35:03.148Z,17.17
2022-07-27T02:38:24.576Z,17.13
2022-07-27T02:41:31.622Z,17.12
2022-07-27T02:44:37.142Z,17.24
2022-07-27T02:47:42.364Z,17.24
2022-07-27T02:50:47.600Z,17.31
2022-07-27T02:53:52.953Z,17.34
2022-07-27T02:57:00.821Z,17.31
2022-07-27T03:00:08.058Z,17.28
2022-07-27T03:03:16.155Z,17.35
2022-07-27T03:06:21.982Z,17.17
2022-07-27T03:09:33.245Z,17.12
2022-07-27T03:12:40.194Z,17.22
2022-07-27T03:15:45.427Z,16.98
2022-07-27T03:18:50.653Z,17.15
2022-07-27T03:21:55.746Z,17.02
2022-07-27T03:25:01.459Z,17.05
2022-07-27T03:28:08.626Z,17.05
2022-07-27T03:31:14.118Z,17.14
2022-07-27T03:34:19.482Z,17.31
2022-07-27T03:37:24.613Z,17.20
2022-07-27T03:40:32.914Z,17.26
2022-07-27T03:43:40.352Z,17.42
2022-07-27T03:46:45.428Z,17.39
2022-07-27T03:49:52.836Z,17.30
2022-07-27T03:52:58.225Z,17.29
2022-07-27T03:56:04.027Z,17.44
2022-07-27T03:59:10.994Z,17.45
2022-07-27T04:02:16.621Z,17.38
2022-07-27T04:05:22.184Z,17.50
2022-07-27T04:08:27.766Z,17.59
2022-07-27T04:11:33.706Z,17.60
2022-07-27T04:14:40.298Z,17.64
2022-07-27T04:17:54.421Z,17.55
2022-07-27T04:21:06.238Z,17.66
2022-07-27T04:24:13.677Z,17.62
2022-07-27T04:27:18.856Z,17.63
2022-07-27T04:30:25.836Z,17.70
2022-07-27T04:33:31.286Z,17.66
2022-07-27T04:36:37.461Z,17.66
2022-07-27T04:39:42.553Z,17.67
2022-07-27T04:42:48.726Z,17.76
2022-07-27T04:45:56.661Z,17.83
2022-07-27T04:49:02.102Z,17.82
2022-07-27T04:52:07.342Z,17.97
2022-07-27T04:55:12.638Z,17.98
2022-07-27T04:58:18.724Z,17.88
2022-07-27T05:01:26.127Z,17.88
2022-07-27T05:04:32.628Z,18.02
2022-07-27T05:07:37.996Z,18.00
2022-07-27T05:10:43.463Z,18.03
2022-07-27T05:13:48.745Z,17.80
2022-07-27T05:16:55.237Z,17.94
2022-07-27T05:20:01.522Z,18.02
2022-07-27T05:23:07.073Z,17.94
2022-07-27T05:26:13.606Z,17.84
2022-07-27T05:29:18.878Z,17.76
2022-07-27T05:32:25.780Z,17.84
2022-07-27T05:35:31.194Z,17.90
2022-07-27T05:38:39.629Z,17.87
2022-07-27T05:41:44.749Z,17.99
2022-07-27T05:44:50.226Z,17.98
2022-07-27T05:47:59.189Z,18.03
2022-07-27T05:51:04.326Z,17.97
2022-07-27T05:54:09.607Z,18.02
2022-07-27T05:57:15.722Z,18.07
2022-07-27T06:00:21.236Z,17.93
2022-07-27T06:03:28.385Z,18.01
2022-07-27T06:06:50.920Z,18.10
2022-07-27T06:09:56.813Z,18.18
2022-07-27T06:13:03.491Z,18.27
2022-07-27T06:16:09.781Z,18.35
2022-07-27T06:19:16.579Z,18.29
2022-07-27T06:22:22.177Z,18.32
2022-07-27T06:25:34.499Z,18.35
2022-07-27T06:28:40.989Z,18.43
2022-07-27T06:31:46.882Z,18.39
2022-07-27T06:34:53.560Z,18.30
2022-07-27T06:37:58.834Z,18.48
2022-07-27T06:41:04.782Z,18.51
2022-07-27T06:44:11.509Z,18.50
2022-07-27T06:47:16.737Z,18.47
2022-07-27T06:50:24.085Z,18.35
2022-07-27T06:53:29.180Z,18.30
2022-07-27T06:56:41.468Z,18.29
2022-07-27T06:59:46.814Z,18.38
2022-07-27T07:02:54.628Z,18.55
2022-07-27T07:06:01.312Z,18.50
2022-07-27T07:09:06.773Z,18.34
2022-07-27T07:12:14.348Z,18.21
2022-07-27T07:15:19.825Z,18.36
2022-07-27T07:18:25.415Z,18.50
2022-07-27T07:21:32.065Z,18.60
2022-07-27T07:24:37.276Z,18.44
2022-07-27T07:27:43.047Z,18.03
2022-07-27T07:30:48.141Z,18.18
2022-07-27T07:33:53.319Z,18.22
2022-07-27T07:36:59.982Z,17.94
2022-07-27T07:43:32.005Z,18.19
2022-07-27T07:46:38.065Z,18.27
2022-07-27T07:49:43.289Z,18.35
2022-07-27T07:52:51.573Z,18.52
2022-07-27T07:55:58.209Z,18.72
2022-07-27T07:59:05.083Z,18.90
2022-07-27T08:02:11.379Z,19.04
2022-07-27T08:05:17.313Z,19.16
2022-07-27T08:08:24.815Z,19.17
2022-07-27T08:11:30.268Z,19.32
2022-07-27T08:14:35.665Z,19.40
2022-07-27T08:17:40.895Z,19.31
2022-07-27T08:20:46.119Z,19.43
2022-07-27T08:23:52.756Z,19.53
2022-07-27T08:26:58.111Z,19.61
2022-07-27T08:30:03.743Z,19.53
2022-07-27T08:33:09.235Z,19.68
2022-07-27T08:36:15.152Z,19.71
2022-07-27T08:40:05.687Z,19.86
2022-07-27T08:42:47.358Z,20.04
2022-07-27T08:45:56.949Z,20.11
2022-07-27T08:49:03.489Z,19.96
2022-07-27T08:52:11.205Z,20.22
2022-07-27T08:55:18.573Z,20.28
2022-07-27T08:58:24.033Z,20.30
2022-07-27T09:01:29.396Z,20.24
2022-07-27T09:04:34.736Z,20.37
2022-07-27T09:07:40.233Z,20.30
2022-07-27T09:10:46.663Z,20.48
2022-07-27T09:13:51.936Z,20.46
2022-07-27T09:17:46.783Z,19.96
2022-07-27T09:20:23.024Z,20.04
2022-07-27T09:23:28.586Z,20.28
2022-07-27T09:26:35.362Z,20.32
2022-07-27T09:29:40.658Z,20.27
2022-07-27T09:32:56.597Z,20.14
2022-07-27T09:36:01.965Z,20.19
2022-07-27T09:39:07.790Z,20.31
2022-07-27T09:43:05.592Z,20.45
2022-07-27T09:45:51.537Z,20.53
2022-07-27T09:48:57.251Z,20.63
2022-07-27T09:52:04.339Z,20.68
2022-07-27T09:55:10.715Z,20.58
2022-07-27T09:58:18.445Z,20.67
2022-07-27T10:01:25.999Z,20.80
2022-07-27T10:04:34.609Z,20.85
2022-07-27T10:07:40.147Z,20.83
2022-07-27T10:10:46.516Z,20.60
2022-07-27T10:13:55.586Z,20.57
2022-07-27T10:17:00.816Z,20.69
2022-07-27T10:20:09.999Z,20.78
2022-07-27T10:23:29.100Z,20.89
2022-07-27T10:26:36.698Z,20.79
2022-07-27T10:29:43.364Z,20.77
2022-07-27T10:32:48.544Z,20.61
2022-07-27T10:35:54.254Z,20.58
2022-07-27T10:39:01.855Z,20.51
2022-07-27T10:42:28.640Z,20.31
2022-07-27T10:46:00.933Z,20.19
2022-07-27T10:49:19.495Z,20.28
2022-07-27T10:52:43.934Z,20.19
2022-07-27T10:55:50.959Z,20.21
2022-07-27T10:58:56.109Z,20.00
2022-07-27T11:02:02.765Z,20.11
2022-07-27T11:05:24.828Z,20.41
2022-07-27T11:08:46.437Z,20.67
2022-07-27T11:11:53.508Z,20.89
2022-07-27T11:15:00.213Z,20.86
2022-07-27T11:18:06.764Z,20.97
2022-07-27T11:21:21.904Z,21.05
2022-07-27T11:24:30.989Z,20.89
2022-07-27T11:27:48.684Z,20.91
2022-07-27T11:30:54.028Z,20.64
2022-07-27T11:34:02.177Z,20.63
2022-07-27T11:37:19.520Z,20.70
2022-07-27T11:40:53.830Z,20.55
2022-07-27T11:43:50.030Z,20.65
2022-07-27T11:47:01.309Z,20.39
2022-07-27T11:50:12.070Z,20.68
2022-07-27T11:53:21.714Z,20.87
2022-07-27T11:56:29.453Z,20.88
2022-07-27T11:59:36.668Z,20.82
2022-07-27T12:02:50.275Z,20.73
2022-07-27T12:05:59.364Z,20.50
2022-07-27T12:09:06.868Z,20.71
2022-07-27T12:12:16.153Z,20.65
2022-07-27T12:15:44.258Z,20.61
2022-07-27T12:18:48.426Z,20.68
2022-07-27T12:21:55.700Z,20.60
2022-07-27T12:25:05.904Z,20.56
2022-07-27T12:28:26.842Z,20.36
2022-07-27T12:31:31.984Z,20.33
2022-07-27T12:34:37.767Z,20.37
2022-07-27T12:37:44.437Z,20.37
2022-07-27T12:40:55.508Z,20.32
2022-07-27T12:44:09.309Z,20.41
2022-07-27T12:47:32.645Z,20.46
2022-07-27T12:50:38.780Z,20.59
2022-07-27T12:53:45.314Z,20.66
2022-07-27T12:56:50.615Z,20.43
2022-07-27T12:59:55.834Z,20.64
2022-07-27T13:03:02.748Z,20.59
2022-07-27T13:06:12.855Z,20.70
2022-07-27T13:09:20.230Z,20.56
2022-07-27T13:12:25.446Z,20.60
2022-07-27T13:15:30.616Z,20.54
2022-07-27T13:18:35.757Z,20.58
2022-07-27T13:21:41.267Z,20.69
2022-07-27T13:24:48.065Z,20.83
2022-07-27T13:27:55.273Z,20.90
2022-07-27T13:31:00.439Z,20.92
2022-07-27T13:34:05.906Z,20.57
2022-07-27T13:37:12.289Z,20.44
2022-07-27T13:40:18.802Z,20.50
2022-07-27T13:43:24.014Z,20.59
2022-07-27T13:46:29.554Z,20.51
2022-07-27T13:49:34.760Z,20.42
2022-07-27T13:52:39.917Z,20.42
2022-07-27T13:55:46.941Z,20.55
2022-07-27T13:58:52.429Z,20.51
2022-07-27T14:01:57.667Z,20.59
2022-07-27T14:05:05.870Z,20.61
2022-07-27T14:08:12.312Z,20.64
2022-07-27T14:11:18.935Z,20.61
2022-07-27T14:14:26.738Z,20.54
2022-07-27T14:17:32.433Z,20.52
2022-07-27T14:20:37.984Z,20.60
2022-07-27T14:23:43.696Z,20.47
2022-07-27T14:26:50.121Z,20.53
2022-07-27T14:29:55.280Z,20.44
2022-07-27T14:33:03.139Z,20.33
2022-07-27T14:36:10.016Z,20.41
2022-07-27T14:39:15.744Z,20.33
2022-07-27T14:42:24.982Z,20.35
2022-07-27T14:45:44.853Z,20.38
2022-07-27T14:49:07.266Z,20.32
2022-07-27T14:52:14.477Z,20.29
2022-07-27T14:55:20.221Z,20.18
2022-07-27T14:58:27.421Z,20.09
2022-07-27T15:01:32.976Z,19.89
2022-07-27T15:04:38.136Z,19.82
2022-07-27T15:07:43.972Z,19.80
2022-07-27T15:10:49.426Z,19.72
2022-07-27T15:13:55.905Z,19.81
2022-07-27T15:17:01.265Z,19.69
2022-07-27T15:20:09.225Z,19.70
2022-07-27T15:23:14.399Z,19.75
2022-07-27T15:26:19.994Z,19.68
2022-07-27T15:29:26.417Z,19.66
2022-07-27T15:32:31.648Z,19.65
2022-07-27T15:35:36.824Z,19.73
2022-07-27T15:38:42.642Z,19.80
2022-07-27T15:41:48.184Z,19.77
2022-07-27T15:44:54.964Z,19.64
2022-07-27T15:48:00.617Z,19.74
2022-07-27T15:51:07.164Z,19.79
2022-07-27T15:54:14.132Z,19.78
2022-07-27T15:57:19.307Z,19.69
2022-07-27T16:00:26.099Z,19.75
2022-07-27T16:03:31.535Z,19.69
2022-07-27T16:06:39.278Z,19.75
2022-07-27T16:09:44.711Z,19.69
2022-07-27T16:12:49.846Z,19.60
2022-07-27T16:16:28.893Z,19.56
2022-07-27T16:19:34.067Z,19.64
2022-07-27T16:22:39.896Z,19.65
2022-07-27T16:26:02.587Z,19.68
2022-07-27T16:29:09.845Z,19.70
2022-07-27T16:32:16.570Z,19.74
2022-07-27T16:35:22.017Z,19.81
2022-07-27T16:38:27.405Z,19.76
2022-07-27T16:41:32.787Z,19.68
2022-07-27T16:44:40.476Z,19.70
2022-07-27T16:47:47.029Z,19.73
2022-07-27T16:50:52.177Z,19.72
2022-07-27T16:53:57.638Z,19.75
2022-07-27T16:57:02.905Z,19.76
2022-07-27T17:00:11.427Z,19.76
2022-07-27T17:03:18.172Z,19.64
2022-07-27T17:06:23.915Z,19.70
2022-07-27T17:09:29.245Z,19.70
2022-07-27T17:12:38.996Z,19.69
2022-07-27T17:15:44.503Z,19.69
2022-07-27T17:18:51.305Z,19.64
2022-07-27T17:21:56.477Z,19.64
2022-07-27T17:25:04.328Z,19.58
2022-07-27T17:28:09.468Z,19.53
2022-07-27T17:31:15.820Z,19.51
2022-07-27T17:34:22.422Z,19.43
2022-07-27T17:37:43.496Z,19.35
2022-07-27T17:40:52.820Z,19.35
2022-07-27T17:43:58.477Z,19.25
2022-07-27T17:47:03.798Z,19.11
2022-07-27T17:50:11.360Z,19.07
2022-07-27T17:53:16.532Z,19.05
2022-07-27T17:56:21.993Z,18.86
2022-07-27T17:59:37.697Z,18.83
2022-07-27T18:02:43.696Z,18.80
2022-07-27T18:05:50.098Z,18.57
2022-07-27T18:08:55.544Z,18.63
2022-07-27T18:12:00.718Z,18.48
2022-07-27T18:15:25.501Z,18.39
2022-07-27T18:18:32.883Z,18.37
2022-07-27T18:21:39.694Z,18.30
2022-07-27T18:24:44.758Z,18.32
2022-07-27T18:27:50.364Z,18.30
2022-07-27T18:30:56.185Z,18.35
2022-07-27T18:34:05.826Z,18.35
2022-07-27T18:37:14.301Z,18.32
2022-07-27T18:40:20.005Z,18.30
2022-07-27T18:43:25.281Z,18.30
2022-07-27T18:46:30.526Z,18.24
2022-07-27T18:49:35.942Z,18.43
2022-07-27T18:52:42.514Z,18.47
2022-07-27T18:55:52.712Z,18.43
2022-07-27T18:59:01.258Z,18.42
2022-07-27T19:02:06.698Z,18.46
2022-07-27T19:05:12.968Z,18.49
2022-07-27T19:08:22.314Z,18.43
2022-07-27T19:11:27.960Z,18.51
2022-07-27T19:14:33.470Z,18.50
2022-07-27T19:17:38.738Z,18.48
2022-07-27T19:20:43.906Z,18.42
2022-07-27T19:23:50.677Z,18.40
2022-07-27T19:26:55.907Z,18.49
2022-07-27T19:30:01.328Z,18.42
2022-07-27T19:33:07.061Z,18.38
2022-07-27T19:36:12.466Z,18.25
2022-07-27T19:39:19.125Z,18.23
2022-07-27T19:42:24.470Z,18.22
2022-07-27T19:45:30.128Z,18.07
2022-07-27T19:48:35.673Z,18.14
2022-07-27T19:51:41.358Z,18.12
2022-07-27T19:54:48.083Z,18.06
2022-07-27T19:57:53.495Z,18.06
2022-07-27T20:00:58.815Z,17.98
2022-07-27T20:04:07.379Z,17.96
2022-07-27T20:07:14.104Z,17.93
2022-07-27T20:10:21.735Z,17.87
2022-07-27T20:13:27.186Z,17.90
2022-07-27T20:16:34.314Z,17.88
2022-07-27T20:19:39.849Z,17.85
2022-07-27T20:22:44.864Z,17.85
2022-07-27T20:25:51.558Z,17.81
2022-07-27T20:28:56.862Z,17.74
2022-07-27T20:32:02.037Z,17.69
2022-07-27T20:35:07.921Z,17.57
2022-07-27T20:38:15.729Z,17.44
2022-07-27T20:41:22.226Z,17.42
2022-07-27T20:44:28.050Z,17.53
2022-07-27T20:47:34.789Z,17.49
2022-07-27T20:50:40.386Z,17.53
2022-07-27T20:53:45.566Z,17.50
2022-07-27T20:56:52.556Z,17.47
2022-07-27T20:59:57.850Z,17.44
2022-07-27T21:03:03.194Z,17.31
2022-07-27T21:06:09.133Z,17.44
2022-07-27T21:09:15.634Z,17.21
2022-07-27T21:12:22.651Z,17.26
2022-07-27T21:15:34.102Z,17.16
2022-07-27T21:18:39.698Z,17.23
2022-07-27T21:21:44.909Z,17.05
2022-07-27T21:24:50.264Z,17.06
2022-07-27T21:27:57.421Z,17.08
2022-07-27T21:31:03.306Z,17.07
2022-07-27T21:34:09.226Z,16.90
2022-07-27T21:37:14.488Z,16.89
2022-07-27T21:40:20.326Z,16.97
2022-07-27T21:43:26.866Z,16.70
2022-07-27T21:46:32.193Z,16.72
2022-07-27T21:49:37.556Z,16.86
2022-07-27T21:52:42.941Z,16.82
2022-07-27T21:55:48.293Z,16.86
2022-07-27T21:58:54.989Z,16.86
2022-07-27T22:02:01.028Z,16.80
2022-07-27T22:05:07.785Z,16.78
2022-07-27T22:08:17.148Z,16.40
2022-07-27T22:11:22.815Z,16.60
2022-07-27T22:14:30.305Z,16.63
2022-07-27T22:17:36.085Z,16.62
2022-07-27T22:20:55.749Z,16.56
2022-07-27T22:24:01.150Z,16.59
2022-07-27T22:27:07.013Z,16.60
2022-07-27T22:30:15.418Z,16.52
2022-07-27T22:33:21.104Z,16.52
2022-07-27T22:36:26.476Z,16.52
2022-07-27T22:39:31.577Z,16.34
2022-07-27T22:42:37.343Z,16.42
2022-07-27T22:45:43.905Z,16.34
2022-07-27T22:48:49.278Z,16.42
2022-07-27T22:51:54.755Z,16.36
2022-07-27T22:55:00.080Z,16.35
2022-07-27T22:58:05.370Z,16.43
2022-07-27T23:01:13.702Z,16.44
2022-07-27T23:04:38.958Z,16.47
2022-07-27T23:07:45.237Z,16.54
2022-07-27T23:10:50.499Z,16.51
2022-07-27T23:13:55.886Z,16.45
2022-07-27T23:17:02.517Z,16.43
2022-07-27T23:20:10.439Z,16.41
2022-07-27T23:23:18.258Z,16.46
2022-07-27T23:26:25.820Z,16.44
2022-07-27T23:29:31.524Z,16.47
2022-07-27T23:32:38.437Z,16.49
2022-07-27T23:35:43.504Z,16.55
2022-07-27T23:38:48.780Z,16.56
2022-07-27T23:41:53.877Z,16.50
2022-07-27T23:44:59.558Z,16.47
2022-07-27T23:48:06.493Z,16.57
2022-07-27T23:51:18.614Z,16.54
2022-07-27T23:54:23.826Z,16.58
2022-07-27T23:57:29.269Z,16.55
